Time;durP1;ratioP1;P1;durP2;ratioP2;P2;SDS_P1;SDS_P2;PMS_P1;PMS_P2;Temp;Humidity;BMP_temperature;BMP_pressure;BME280_temperature;BME280_humidity;BME280_pressure;Samples;Min_cycle;Max_cycle;Signal;HPM_P1;HPM_P2
2022/01/25 00:10:02;;;;;;;73.50;35.55;;;;;;;;;;5084327;28;20507;-64
2022/01/25 00:28:38;;;;;;;69.53;35.80;;;;;;;;;;5072086;28;20044;-64
2022/01/25 00:31:17;;;;;;;75.55;35.47;;;;;;;;;;5103652;28;20437;-64
2022/01/25 00:33:47;;;;;;;73.55;36.25;;;;;;;;;;5071622;28;20051;-64
2022/01/25 00:36:15;;;;;;;71.65;33.80;;;;;;;;;;5071905;28;20037;-64
2022/01/25 00:38:41;;;;;;;68.70;33.78;;;;;;;;;;5071268;28;20047;-64
2022/01/25 00:41:07;;;;;;;71.22;35.03;;;;;;;;;;5070284;28;20052;-64
2022/01/25 00:43:33;;;;;;;68.70;34.63;;;;;;;;;;5071932;28;20498;-64
2022/01/25 00:46:05;;;;;;;72.38;36.13;;;;;;;;;;5071173;28;20044;-64
2022/01/25 00:51:18;;;;;;;69.22;33.85;;;;;;;;;;5071898;28;20124;-64
2022/01/25 00:56:19;;;;;;;72.00;33.83;;;;;;;;;;5071984;28;20051;-64
2022/01/25 00:58:45;;;;;;;66.95;34.35;;;;;;;;;;5071683;28;20047;-64
2022/01/25 01:01:11;;;;;;;68.70;34.53;;;;;;;;;;5071450;28;20041;-64
2022/01/25 01:03:38;;;;;;;71.20;35.33;;;;;;;;;;5071609;28;20064;-64
2022/01/25 01:06:05;;;;;;;71.45;33.55;;;;;;;;;;5071305;28;20040;-64
2022/01/25 01:08:32;;;;;;;70.13;34.55;;;;;;;;;;5071028;28;20045;-64
2022/01/25 01:11:00;;;;;;;74.88;36.67;;;;;;;;;;5071709;28;20097;-64
2022/01/25 01:30:08;;;;;;;71.55;34.20;;;;;;;;;;5050612;28;20076;-64
2022/01/25 01:33:18;;;;;;;74.50;35.65;;;;;;;;;;5052034;28;20423;-64
2022/01/25 01:43:44;;;;;;;72.90;34.78;;;;;;;;;;5054636;28;20124;-64
2022/01/25 01:48:42;;;;;;;71.43;34.95;;;;;;;;;;5054846;28;20051;-64
2022/01/25 01:54:11;;;;;;;78.22;35.30;;;;;;;;;;5051841;28;20142;-64
2022/01/25 01:56:38;;;;;;;73.13;35.35;;;;;;;;;;5054304;28;20134;-64
2022/01/25 01:59:06;;;;;;;72.25;35.63;;;;;;;;;;5054232;28;20048;-64
2022/01/25 02:01:32;;;;;;;73.90;35.72;;;;;;;;;;5053694;28;20051;-64
2022/01/25 02:03:59;;;;;;;70.93;36.28;;;;;;;;;;5054866;28;20514;-64
2022/01/25 02:06:26;;;;;;;78.40;36.45;;;;;;;;;;5054139;28;20464;-64
2022/01/25 02:08:52;;;;;;;79.18;36.90;;;;;;;;;;5054445;28;20033;-64
2022/01/25 02:11:19;;;;;;;73.97;34.90;;;;;;;;;;5054648;28;20091;-64
2022/01/25 02:13:46;;;;;;;82.30;38.42;;;;;;;;;;5054197;28;20060;-64
2022/01/25 02:16:29;;;;;;;78.18;37.28;;;;;;;;;;5054528;28;20464;-64
2022/01/25 02:24:25;;;;;;;77.13;35.63;;;;;;;;;;5054228;28;20060;-64
2022/01/25 02:26:55;;;;;;;73.53;35.85;;;;;;;;;;5068415;28;20059;-64
2022/01/25 02:29:21;;;;;;;77.85;37.15;;;;;;;;;;5073340;28;20044;-64
2022/01/25 02:31:47;;;;;;;74.45;35.10;;;;;;;;;;5074377;28;20032;-64
2022/01/25 02:34:14;;;;;;;78.20;36.03;;;;;;;;;;5106652;28;20613;-64
2022/01/25 02:36:40;;;;;;;73.88;36.63;;;;;;;;;;5073162;28;20079;-64
2022/01/25 02:39:06;;;;;;;77.78;37.13;;;;;;;;;;5074146;28;20052;-64
2022/01/25 02:41:33;;;;;;;78.85;35.92;;;;;;;;;;5074266;28;20037;-64
2022/01/25 02:43:59;;;;;;;73.43;35.25;;;;;;;;;;5072396;28;20124;-64
2022/01/25 02:48:59;;;;;;;73.80;33.90;;;;;;;;;;5074133;28;20426;-64
2022/01/25 02:51:26;;;;;;;70.78;33.22;;;;;;;;;;5073384;28;20048;-64
2022/01/25 02:53:53;;;;;;;71.78;34.30;;;;;;;;;;5073908;28;20059;-64
2022/01/25 02:56:19;;;;;;;73.38;34.70;;;;;;;;;;5074035;28;20537;-64
2022/01/25 02:58:45;;;;;;;76.70;36.65;;;;;;;;;;5073266;28;20115;-64
2022/01/25 03:01:12;;;;;;;71.07;35.00;;;;;;;;;;5073775;28;20047;-64
2022/01/25 03:03:38;;;;;;;73.20;34.85;;;;;;;;;;5073633;28;20421;-64
2022/01/25 03:06:04;;;;;;;71.90;34.10;;;;;;;;;;5073147;28;20574;-64
2022/01/25 03:08:31;;;;;;;71.47;33.97;;;;;;;;;;5072197;28;20438;-64
2022/01/25 03:10:57;;;;;;;75.40;36.22;;;;;;;;;;5073599;28;20457;-64
2022/01/25 03:13:25;;;;;;;76.03;35.05;;;;;;;;;;5072815;28;20506;-64
2022/01/25 03:18:38;;;;;;;74.72;34.88;;;;;;;;;;5073302;28;20052;-64
2022/01/25 03:21:20;;;;;;;76.20;35.53;;;;;;;;;;5072936;28;20081;-64
2022/01/25 03:23:47;;;;;;;72.10;34.78;;;;;;;;;;5073318;28;20303;-64
2022/01/25 03:26:13;;;;;;;79.55;36.42;;;;;;;;;;5073198;28;20437;-64
2022/01/25 03:28:39;;;;;;;76.57;35.92;;;;;;;;;;5072448;28;20080;-64
2022/01/25 03:31:05;;;;;;;79.57;36.17;;;;;;;;;;5073243;28;20033;-64
2022/01/25 03:33:31;;;;;;;82.78;38.85;;;;;;;;;;5073120;28;20124;-64
2022/01/25 03:35:57;;;;;;;77.13;34.95;;;;;;;;;;5072412;28;20071;-64
2022/01/25 03:38:23;;;;;;;79.75;36.70;;;;;;;;;;5071791;28;20414;-64
2022/01/25 03:40:49;;;;;;;79.50;36.53;;;;;;;;;;5071374;28;20105;-64
2022/01/25 03:43:18;;;;;;;76.30;36.03;;;;;;;;;;5072281;28;20467;-64
2022/01/25 03:45:57;;;;;;;76.22;35.60;;;;;;;;;;5073129;28;20044;-64
2022/01/25 03:50:50;;;;;;;81.18;36.45;;;;;;;;;;5072251;28;20475;-64
2022/01/25 03:53:17;;;;;;;77.15;35.75;;;;;;;;;;5071237;28;20098;-64
2022/01/25 03:55:43;;;;;;;77.07;36.15;;;;;;;;;;5072773;28;20119;-64
2022/01/25 03:58:09;;;;;;;78.10;35.88;;;;;;;;;;5071625;28;20046;-64
2022/01/25 04:00:36;;;;;;;79.60;36.65;;;;;;;;;;5072516;28;20041;-64
2022/01/25 04:03:08;;;;;;;73.10;35.70;;;;;;;;;;5072482;28;20037;-64
2022/01/25 04:05:49;;;;;;;73.63;35.25;;;;;;;;;;5071621;28;20036;-64
2022/01/25 04:08:15;;;;;;;77.53;35.92;;;;;;;;;;5072659;28;20116;-64
2022/01/25 04:10:42;;;;;;;76.28;35.20;;;;;;;;;;5072132;28;20070;-64
2022/01/25 04:13:08;;;;;;;78.45;35.00;;;;;;;;;;5071759;28;20094;-64
2022/01/25 04:15:35;;;;;;;78.72;35.33;;;;;;;;;;5070848;28;20040;-64
2022/01/25 04:20:58;;;;;;;78.15;35.75;;;;;;;;;;5071733;28;20060;-64
2022/01/25 04:26:09;;;;;;;76.97;35.25;;;;;;;;;;5071119;28;20521;-64
2022/01/25 04:28:35;;;;;;;76.13;33.42;;;;;;;;;;5071961;28;20072;-64
2022/01/25 04:31:01;;;;;;;73.90;34.00;;;;;;;;;;5104651;28;20139;-64
2022/01/25 04:33:38;;;;;;;80.95;35.45;;;;;;;;;;5071282;28;20140;-64
2022/01/25 04:49:53;;;;;;;73.50;34.78;;;;;;;;;;5070906;28;20051;-64
2022/01/25 04:52:23;;;;;;;72.95;34.85;;;;;;;;;;5072175;28;20074;-64
2022/01/25 04:55:00;;;;;;;78.07;36.05;;;;;;;;;;5071831;28;20040;-64
2022/01/25 05:00:04;;;;;;;78.47;35.05;;;;;;;;;;5072112;28;20128;-64
2022/01/25 05:05:18;;;;;;;76.90;35.55;;;;;;;;;;5071148;28;20052;-64
2022/01/25 05:10:11;;;;;;;70.75;34.53;;;;;;;;;;5076190;28;20128;-64
2022/01/25 05:12:53;;;;;;;70.07;32.40;;;;;;;;;;5075559;28;20094;-64
2022/01/25 05:17:58;;;;;;;70.03;33.67;;;;;;;;;;5075683;28;20056;-64
2022/01/25 05:23:09;;;;;;;76.25;34.67;;;;;;;;;;5075842;28;20192;-64
2022/01/25 05:25:35;;;;;;;78.72;34.83;;;;;;;;;;5070528;28;20122;-64
2022/01/25 05:28:01;;;;;;;73.40;32.55;;;;;;;;;;5055449;28;20045;-64
2022/01/25 05:30:27;;;;;;;76.03;34.63;;;;;;;;;;5055335;28;20052;-64
2022/01/25 05:32:53;;;;;;;71.22;32.90;;;;;;;;;;5054721;28;20103;-64
2022/01/25 05:35:19;;;;;;;77.68;33.95;;;;;;;;;;5055413;28;20029;-64
2022/01/25 05:37:45;;;;;;;71.50;34.10;;;;;;;;;;5055500;28;20040;-64
2022/01/25 05:40:16;;;;;;;80.32;34.28;;;;;;;;;;5054690;28;20044;-64
2022/01/25 05:43:51;;;;;;;72.30;33.67;;;;;;;;;;5087585;28;20033;-64
2022/01/25 05:45:55;;;;;;;81.78;34.83;;;;;;;;;;5055238;28;20527;-64
2022/01/25 05:48:21;;;;;;;80.18;33.60;;;;;;;;;;5054467;28;20124;-64
2022/01/25 05:50:47;;;;;;;76.32;33.70;;;;;;;;;;5054998;28;20573;-64
2022/01/25 05:53:13;;;;;;;77.13;34.53;;;;;;;;;;5053826;28;20080;-64
2022/01/25 05:55:39;;;;;;;74.28;33.53;;;;;;;;;;5054178;28;20068;-64
2022/01/25 05:58:05;;;;;;;73.30;33.20;;;;;;;;;;5055004;28;20048;-64
2022/01/25 06:00:31;;;;;;;74.65;34.67;;;;;;;;;;5054420;28;20057;-64
2022/01/25 06:02:57;;;;;;;74.20;33.28;;;;;;;;;;5054292;28;20128;-64
2022/01/25 06:05:25;;;;;;;75.93;34.38;;;;;;;;;;5054732;28;20060;-64
2022/01/25 06:07:52;;;;;;;71.30;32.53;;;;;;;;;;5054833;28;20549;-64
2022/01/25 06:10:18;;;;;;;72.82;34.40;;;;;;;;;;5054084;28;20472;-64
2022/01/25 06:12:45;;;;;;;76.07;33.03;;;;;;;;;;5054843;28;20037;-64
2022/01/25 06:15:12;;;;;;;73.22;34.35;;;;;;;;;;5054629;28;20037;-64
2022/01/25 06:17:39;;;;;;;73.43;33.28;;;;;;;;;;5054130;28;20138;-64
2022/01/25 06:20:05;;;;;;;75.70;34.58;;;;;;;;;;5054059;28;20080;-64
2022/01/25 06:22:31;;;;;;;77.43;35.42;;;;;;;;;;5054435;28;20037;-64
2022/01/25 06:24:58;;;;;;;78.30;34.70;;;;;;;;;;5052036;28;20124;-64
2022/01/25 06:27:25;;;;;;;74.00;33.83;;;;;;;;;;5073088;28;20051;-64
2022/01/25 06:29:51;;;;;;;72.78;34.10;;;;;;;;;;5074295;28;20122;-64
2022/01/25 06:32:19;;;;;;;78.82;34.47;;;;;;;;;;5073878;28;20046;-64
2022/01/25 06:34:45;;;;;;;76.10;33.42;;;;;;;;;;5074316;28;20076;-64
2022/01/25 06:37:12;;;;;;;76.05;34.03;;;;;;;;;;5074086;28;20090;-64
2022/01/25 06:39:39;;;;;;;72.32;33.13;;;;;;;;;;5073501;28;20052;-64
2022/01/25 06:42:05;;;;;;;76.03;34.53;;;;;;;;;;5074221;28;20135;-64
2022/01/25 06:44:34;;;;;;;79.57;34.00;;;;;;;;;;5074180;28;20440;-64
2022/01/25 06:47:00;;;;;;;79.25;33.97;;;;;;;;;;5073426;28;20072;-64
2022/01/25 06:49:26;;;;;;;76.60;35.03;;;;;;;;;;5071779;28;20449;-64
2022/01/25 06:51:52;;;;;;;78.53;35.00;;;;;;;;;;5072474;28;20873;-64
2022/01/25 06:54:18;;;;;;;75.82;33.42;;;;;;;;;;5072177;28;20565;-64
2022/01/25 06:56:44;;;;;;;75.28;33.97;;;;;;;;;;5073033;28;20064;-64
2022/01/25 06:59:11;;;;;;;77.68;32.75;;;;;;;;;;5073698;28;20040;-64
2022/01/25 07:01:37;;;;;;;74.78;33.80;;;;;;;;;;5072365;28;20045;-64
2022/01/25 07:04:03;;;;;;;79.35;35.85;;;;;;;;;;5073451;28;20036;-64
2022/01/25 07:06:29;;;;;;;76.80;33.22;;;;;;;;;;5073290;28;20044;-64
2022/01/25 07:08:55;;;;;;;74.43;33.08;;;;;;;;;;5071149;28;20098;-64
2022/01/25 07:11:22;;;;;;;77.82;34.03;;;;;;;;;;5072957;28;20573;-64
2022/01/25 07:13:48;;;;;;;72.28;32.72;;;;;;;;;;5073324;28;20036;-64
2022/01/25 07:16:14;;;;;;;73.13;32.67;;;;;;;;;;5069331;28;20032;-56
2022/01/25 07:18:40;;;;;;;76.65;35.00;;;;;;;;;;5070300;28;20047;-57
2022/01/25 07:21:06;;;;;;;80.07;33.10;;;;;;;;;;5072337;28;20048;-56
2022/01/25 07:23:32;;;;;;;73.03;32.20;;;;;;;;;;5071533;28;20077;-53
2022/01/25 07:25:58;;;;;;;74.63;32.45;;;;;;;;;;5072410;28;20064;-57
2022/01/25 07:28:24;;;;;;;76.82;34.67;;;;;;;;;;5070229;28;20041;-57
2022/01/25 07:30:51;;;;;;;76.80;32.45;;;;;;;;;;5060980;28;20029;-57
2022/01/25 07:33:17;;;;;;;74.63;33.28;;;;;;;;;;5070077;28;20040;-60
2022/01/25 07:35:45;;;;;;;75.60;33.70;;;;;;;;;;5073399;28;20070;-58
2022/01/25 07:38:14;;;;;;;72.20;32.88;;;;;;;;;;5071991;28;20544;-59
2022/01/25 07:40:41;;;;;;;74.97;31.65;;;;;;;;;;5063105;28;20491;-60
2022/01/25 07:43:07;;;;;;;70.25;31.50;;;;;;;;;;5071790;28;20131;-61
2022/01/25 07:45:35;;;;;;;78.05;34.15;;;;;;;;;;5071544;28;20036;-60
2022/01/25 07:48:08;;;;;;;69.18;32.13;;;;;;;;;;5069250;28;20094;-59
2022/01/25 07:50:35;;;;;;;74.32;34.75;;;;;;;;;;5070864;28;20111;-58
2022/01/25 07:53:01;;;;;;;81.43;32.60;;;;;;;;;;5070832;28;20048;-59
2022/01/25 07:55:27;;;;;;;79.18;34.70;;;;;;;;;;5068802;28;20040;-59
2022/01/25 07:57:53;;;;;;;77.20;33.22;;;;;;;;;;5070855;28;20067;-59
2022/01/25 08:00:20;;;;;;;73.28;31.85;;;;;;;;;;5066291;28;20374;-60
2022/01/25 08:02:47;;;;;;;73.50;33.78;;;;;;;;;;5070518;28;20095;-58
2022/01/25 08:05:17;;;;;;;75.18;33.00;;;;;;;;;;5070249;28;20106;-59
2022/01/25 08:07:43;;;;;;;71.00;31.83;;;;;;;;;;5070955;28;20072;-58
2022/01/25 08:10:10;;;;;;;76.75;33.38;;;;;;;;;;5072495;28;20524;-59
2022/01/25 08:12:36;;;;;;;75.10;33.70;;;;;;;;;;5071150;28;20082;-59
2022/01/25 08:15:04;;;;;;;71.03;31.65;;;;;;;;;;5071141;28;20128;-58
2022/01/25 08:17:30;;;;;;;76.00;32.42;;;;;;;;;;5069672;28;20044;-61
2022/01/25 08:19:56;;;;;;;81.28;33.17;;;;;;;;;;5070948;28;20097;-61
2022/01/25 08:22:24;;;;;;;77.90;31.90;;;;;;;;;;5069472;28;20094;-62
2022/01/25 08:24:50;;;;;;;76.07;32.88;;;;;;;;;;5069813;28;20434;-61
2022/01/25 08:27:20;;;;;;;74.05;33.78;;;;;;;;;;5069838;28;20071;-63
2022/01/25 08:29:46;;;;;;;72.47;32.35;;;;;;;;;;5069894;28;20045;-61
2022/01/25 08:32:12;;;;;;;73.53;33.33;;;;;;;;;;5066494;28;20185;-61
2022/01/25 08:34:38;;;;;;;72.05;32.00;;;;;;;;;;5068179;28;20056;-63
2022/01/25 08:37:05;;;;;;;72.35;32.38;;;;;;;;;;5069772;28;20047;-60
2022/01/25 08:39:31;;;;;;;72.15;32.15;;;;;;;;;;5068873;28;20040;-61
2022/01/25 08:41:57;;;;;;;72.20;31.70;;;;;;;;;;5071380;28;20106;-61
2022/01/25 08:44:24;;;;;;;75.72;31.90;;;;;;;;;;5071540;28;20028;-63
2022/01/25 08:46:50;;;;;;;74.18;31.42;;;;;;;;;;5076005;28;20040;-63
2022/01/25 08:49:16;;;;;;;74.78;32.85;;;;;;;;;;5069823;28;20040;-61
2022/01/25 08:51:42;;;;;;;75.13;33.63;;;;;;;;;;5069877;28;20461;-61
2022/01/25 08:54:08;;;;;;;73.60;31.30;;;;;;;;;;5066711;28;20483;-61
2022/01/25 08:56:34;;;;;;;77.97;31.33;;;;;;;;;;5069601;28;20758;-64
2022/01/25 08:59:00;;;;;;;76.70;33.60;;;;;;;;;;5068489;28;20517;-63
2022/01/25 09:01:27;;;;;;;75.35;32.88;;;;;;;;;;5069201;28;20037;-62
2022/01/25 09:03:54;;;;;;;71.78;31.90;;;;;;;;;;5062566;28;20032;-62
2022/01/25 09:06:21;;;;;;;73.82;33.08;;;;;;;;;;5069701;28;20064;-63
2022/01/25 09:08:47;;;;;;;74.40;34.33;;;;;;;;;;5068654;28;20045;-62
2022/01/25 09:11:13;;;;;;;73.97;31.95;;;;;;;;;;5070030;28;20037;-61
2022/01/25 09:13:39;;;;;;;74.13;33.88;;;;;;;;;;5068928;28;20047;-62
2022/01/25 09:16:07;;;;;;;76.55;33.83;;;;;;;;;;5069104;28;20048;-62
2022/01/25 09:18:33;;;;;;;76.68;33.85;;;;;;;;;;5066144;28;20475;-63
2022/01/25 09:20:59;;;;;;;68.93;30.60;;;;;;;;;;5068499;28;20534;-63
2022/01/25 09:23:26;;;;;;;76.47;32.15;;;;;;;;;;5069158;28;20127;-62
2022/01/25 09:25:52;;;;;;;73.35;32.40;;;;;;;;;;5069038;28;20067;-63
2022/01/25 09:28:18;;;;;;;72.95;32.47;;;;;;;;;;5101914;28;20056;-63
2022/01/25 09:30:45;;;;;;;75.63;32.83;;;;;;;;;;5069327;28;20102;-61
2022/01/25 09:33:11;;;;;;;80.45;34.65;;;;;;;;;;5068019;28;20040;-61
2022/01/25 09:35:37;;;;;;;76.15;33.17;;;;;;;;;;5069496;28;20475;-61
2022/01/25 09:38:03;;;;;;;72.15;32.35;;;;;;;;;;5069098;28;20036;-63
2022/01/25 09:40:29;;;;;;;76.95;32.33;;;;;;;;;;5069590;28;20064;-64
2022/01/25 09:42:57;;;;;;;80.07;34.90;;;;;;;;;;5069195;28;20549;-64
2022/01/25 09:45:23;;;;;;;75.65;32.95;;;;;;;;;;5063521;28;20646;-64
2022/01/25 09:47:53;;;;;;;77.85;33.30;;;;;;;;;;5065065;28;20678;-64
2022/01/25 09:50:19;;;;;;;74.22;32.38;;;;;;;;;;5056969;28;20028;-63
2022/01/25 09:52:45;;;;;;;72.25;31.25;;;;;;;;;;5067115;28;20044;-64
2022/01/25 09:55:13;;;;;;;75.55;32.67;;;;;;;;;;5071196;28;20039;-63
2022/01/25 09:57:40;;;;;;;79.00;31.67;;;;;;;;;;5068729;28;20044;-65
2022/01/25 10:00:07;;;;;;;73.13;31.33;;;;;;;;;;5070208;28;20068;-63
2022/01/25 10:02:43;;;;;;;74.30;31.95;;;;;;;;;;5103242;28;20383;-65
2022/01/25 10:05:16;;;;;;;71.78;30.90;;;;;;;;;;5060777;28;20072;-64
2022/01/25 10:07:42;;;;;;;79.53;32.83;;;;;;;;;;5067999;28;20186;-63
2022/01/25 10:10:08;;;;;;;77.30;33.33;;;;;;;;;;5073221;28;20064;-63
2022/01/25 10:12:34;;;;;;;73.75;31.95;;;;;;;;;;5072214;28;20382;-62
2022/01/25 10:15:00;;;;;;;73.25;33.17;;;;;;;;;;5068364;28;20033;-62
2022/01/25 10:17:30;;;;;;;73.07;31.27;;;;;;;;;;5071112;28;20154;-62
2022/01/25 10:19:56;;;;;;;71.68;30.88;;;;;;;;;;5051804;28;20101;-63
2022/01/25 10:22:23;;;;;;;76.32;33.40;;;;;;;;;;5071672;28;20040;-62
2022/01/25 10:24:49;;;;;;;76.40;31.77;;;;;;;;;;5064982;28;20049;-64
2022/01/25 10:27:15;;;;;;;78.75;33.88;;;;;;;;;;5070809;28;20494;-64
2022/01/25 10:29:41;;;;;;;81.20;33.00;;;;;;;;;;5071791;28;20052;-64
2022/01/25 10:32:13;;;;;;;77.75;32.85;;;;;;;;;;5060306;28;20039;-63
2022/01/25 10:34:41;;;;;;;80.30;34.20;;;;;;;;;;5071378;28;20551;-63
2022/01/25 10:37:12;;;;;;;79.45;33.10;;;;;;;;;;5071224;28;20075;-63
2022/01/25 10:39:41;;;;;;;75.70;32.72;;;;;;;;;;5073431;28;20033;-64
2022/01/25 10:42:08;;;;;;;78.05;32.28;;;;;;;;;;5069494;28;20399;-65
2022/01/25 10:44:46;;;;;;;81.53;33.33;;;;;;;;;;5072131;28;20045;-64
2022/01/25 10:47:12;;;;;;;84.28;34.92;;;;;;;;;;5072389;28;20048;-64
2022/01/25 10:49:49;;;;;;;80.90;32.85;;;;;;;;;;5069375;28;20040;-65
2022/01/25 10:52:24;;;;;;;85.40;32.47;;;;;;;;;;5069510;28;20033;-64
2022/01/25 10:54:51;;;;;;;74.05;31.48;;;;;;;;;;5100424;28;20132;-64
2022/01/25 10:57:18;;;;;;;82.25;33.75;;;;;;;;;;5069835;28;20140;-64
2022/01/25 10:59:55;;;;;;;79.03;33.13;;;;;;;;;;5068832;28;20109;-63
2022/01/25 11:02:21;;;;;;;82.25;33.45;;;;;;;;;;5067894;28;20047;-63
2022/01/25 11:04:47;;;;;;;75.70;33.53;;;;;;;;;;5071178;28;20487;-63
2022/01/25 11:07:13;;;;;;;78.97;33.70;;;;;;;;;;5070494;28;20403;-64
2022/01/25 11:09:44;;;;;;;82.47;33.80;;;;;;;;;;5071061;28;20052;-64
2022/01/25 11:12:15;;;;;;;82.85;34.13;;;;;;;;;;5071945;28;20058;-64
2022/01/25 11:14:50;;;;;;;84.75;34.33;;;;;;;;;;5069129;28;20033;-64
2022/01/25 11:17:18;;;;;;;82.45;34.95;;;;;;;;;;5071246;28;20131;-62
2022/01/25 11:19:44;;;;;;;77.00;33.55;;;;;;;;;;5069004;28;20479;-64
2022/01/25 11:22:12;;;;;;;76.88;31.75;;;;;;;;;;5069233;28;20040;-64
2022/01/25 11:24:39;;;;;;;76.32;33.25;;;;;;;;;;5070856;28;20049;-64
2022/01/25 11:27:06;;;;;;;79.57;32.47;;;;;;;;;;5069005;28;20075;-64
2022/01/25 11:29:34;;;;;;;77.20;34.38;;;;;;;;;;5070173;28;20799;-64
2022/01/25 11:32:06;;;;;;;75.13;31.80;;;;;;;;;;5071449;28;20382;-64
2022/01/25 11:34:34;;;;;;;81.23;33.00;;;;;;;;;;5065631;28;20036;-63
2022/01/25 11:37:02;;;;;;;74.53;32.92;;;;;;;;;;5067776;28;20926;-62
2022/01/25 11:39:30;;;;;;;76.80;33.17;;;;;;;;;;5070064;28;20047;-62
2022/01/25 11:42:04;;;;;;;73.15;32.25;;;;;;;;;;5069898;28;20059;-62
2022/01/25 11:44:31;;;;;;;77.95;29.23;;;;;;;;;;5069889;28;20053;-62
2022/01/25 11:46:59;;;;;;;78.88;32.72;;;;;;;;;;5071009;28;20455;-62
2022/01/25 11:49:25;;;;;;;74.95;32.03;;;;;;;;;;5068350;28;20041;-62
2022/01/25 11:52:11;;;;;;;75.78;32.65;;;;;;;;;;5062027;28;20040;-62
2022/01/25 11:54:37;;;;;;;80.78;33.47;;;;;;;;;;5068310;28;20045;-62
2022/01/25 11:57:29;;;;;;;79.78;31.73;;;;;;;;;;5070532;28;20060;-62
2022/01/25 11:59:57;;;;;;;75.72;31.60;;;;;;;;;;5051088;28;20137;-62
2022/01/25 12:02:42;;;;;;;77.00;31.98;;;;;;;;;;5064479;28;20037;-62
2022/01/25 12:05:09;;;;;;;78.03;31.70;;;;;;;;;;5051475;28;20045;-62
2022/01/25 12:07:41;;;;;;;79.22;32.72;;;;;;;;;;5071178;28;20391;-62
2022/01/25 12:10:38;;;;;;;75.32;31.33;;;;;;;;;;5070211;28;20049;-63
2022/01/25 12:13:16;;;;;;;79.22;31.75;;;;;;;;;;5051957;28;20044;-64
2022/01/25 12:15:43;;;;;;;75.50;31.27;;;;;;;;;;5066612;28;20037;-64
2022/01/25 12:18:10;;;;;;;83.03;34.40;;;;;;;;;;5049605;28;20040;-62
2022/01/25 12:20:47;;;;;;;80.13;32.58;;;;;;;;;;5055670;28;20111;-62
2022/01/25 12:23:18;;;;;;;82.13;33.67;;;;;;;;;;5070169;28;20028;-62
2022/01/25 12:25:57;;;;;;;77.82;32.55;;;;;;;;;;5067786;28;20064;-62
2022/01/25 12:28:30;;;;;;;81.95;31.83;;;;;;;;;;5070197;28;20076;-62
2022/01/25 12:31:00;;;;;;;76.22;31.60;;;;;;;;;;5065238;28;21899;-62
2022/01/25 12:33:27;;;;;;;81.15;32.72;;;;;;;;;;5068097;28;20047;-66
2022/01/25 12:36:00;;;;;;;84.18;32.80;;;;;;;;;;5068555;28;20453;-64
2022/01/25 12:38:39;;;;;;;74.13;31.50;;;;;;;;;;5069186;28;20044;-63
2022/01/25 12:41:08;;;;;;;77.85;32.47;;;;;;;;;;5068832;28;20044;-63
2022/01/25 12:43:38;;;;;;;78.10;33.17;;;;;;;;;;5068085;28;20042;-63
2022/01/25 12:46:22;;;;;;;81.05;33.08;;;;;;;;;;5067875;28;20407;-64
2022/01/25 12:48:53;;;;;;;81.43;33.72;;;;;;;;;;5070473;28;20051;-64
2022/01/25 12:51:20;;;;;;;80.47;31.17;;;;;;;;;;5067209;28;20119;-64
2022/01/25 12:53:47;;;;;;;76.18;31.75;;;;;;;;;;5069386;28;20043;-64
2022/01/25 12:56:16;;;;;;;76.72;32.88;;;;;;;;;;5065240;28;21467;-65
2022/01/25 12:58:42;;;;;;;77.65;33.05;;;;;;;;;;5099454;28;20094;-64
2022/01/25 13:01:13;;;;;;;79.35;33.53;;;;;;;;;;5068023;28;20473;-65
2022/01/25 13:03:46;;;;;;;74.13;31.65;;;;;;;;;;5066952;28;20068;-66
2022/01/25 13:06:14;;;;;;;75.97;31.08;;;;;;;;;;5061039;28;20040;-67
2022/01/25 13:08:44;;;;;;;77.00;30.92;;;;;;;;;;5069762;28;20041;-66
2022/01/25 13:17:03;;;;;;;77.90;31.48;;;;;;;;;;5069554;28;20047;-63
2022/01/25 13:19:33;;;;;;;72.43;30.60;;;;;;;;;;5070032;28;20048;-64
2022/01/25 13:22:20;;;;;;;81.95;31.70;;;;;;;;;;5070871;28;20048;-63
2022/01/25 13:27:48;;;;;;;;;;;;;;;;;;5068692;28;20045;-61
2022/01/25 13:32:59;;;;;;;72.80;30.52;;;;;;;;;;5070237;28;20090;-62
2022/01/25 13:35:34;;;;;;;72.55;31.58;;;;;;;;;;5073511;28;20068;-62
2022/01/25 13:38:09;;;;;;;76.50;31.67;;;;;;;;;;5073244;28;20395;-63
2022/01/25 13:40:47;;;;;;;77.70;32.00;;;;;;;;;;5074583;28;20033;-65
2022/01/25 13:45:57;;;;;;;81.40;33.35;;;;;;;;;;5065353;28;20080;-64
2022/01/25 13:48:26;;;;;;;78.05;31.63;;;;;;;;;;5071894;28;20182;-65
2022/01/25 13:50:56;;;;;;;80.45;34.35;;;;;;;;;;5071969;28;20086;-64
2022/01/25 13:53:22;;;;;;;79.35;32.78;;;;;;;;;;5072015;28;20032;-64
2022/01/25 13:55:49;;;;;;;74.13;30.73;;;;;;;;;;5070475;28;20044;-64
2022/01/25 13:58:25;;;;;;;73.55;30.45;;;;;;;;;;5060194;28;20044;-64
2022/01/25 14:00:52;;;;;;;82.57;31.70;;;;;;;;;;5070907;28;20044;-65
2022/01/25 14:03:23;;;;;;;73.20;30.90;;;;;;;;;;5072887;28;20079;-65
2022/01/25 14:05:49;;;;;;;71.68;30.17;;;;;;;;;;5073608;28;20036;-65
2022/01/25 14:08:15;;;;;;;70.80;30.65;;;;;;;;;;5073097;28;20055;-65
2022/01/25 14:10:48;;;;;;;72.57;30.10;;;;;;;;;;5072834;28;20047;-65
2022/01/25 14:24:05;;;;;;;73.03;30.70;;;;;;;;;;5073276;28;20390;-65
2022/01/25 14:26:32;;;;;;;74.63;31.15;;;;;;;;;;5072358;28;20198;-65
2022/01/25 14:29:12;;;;;;;69.38;29.23;;;;;;;;;;5072717;28;20069;-64
2022/01/25 14:31:42;;;;;;;72.95;30.02;;;;;;;;;;5067810;28;20481;-64
2022/01/25 14:34:10;;;;;;;73.32;30.00;;;;;;;;;;5072956;28;20498;-64
2022/01/25 14:36:36;;;;;;;79.40;30.30;;;;;;;;;;5073631;28;20032;-64
2022/01/25 14:39:05;;;;;;;74.43;29.67;;;;;;;;;;5073233;28;20043;-64
2022/01/25 14:41:32;;;;;;;75.68;31.88;;;;;;;;;;5071654;28;20498;-64
2022/01/25 14:44:01;;;;;;;76.45;30.25;;;;;;;;;;5072952;28;20173;-64
2022/01/25 14:46:34;;;;;;;71.40;30.10;;;;;;;;;;5072000;28;20503;-64
2022/01/25 14:49:05;;;;;;;76.75;31.10;;;;;;;;;;5072482;28;20040;-64
2022/01/25 14:51:33;;;;;;;75.60;30.25;;;;;;;;;;5072271;28;20044;-64
2022/01/25 14:53:59;;;;;;;74.07;30.50;;;;;;;;;;5071528;28;20033;-65
2022/01/25 14:56:29;;;;;;;81.97;31.20;;;;;;;;;;5072293;28;20037;-65
2022/01/25 15:01:21;;;;;;;71.22;29.98;;;;;;;;;;5072232;28;20041;-65
2022/01/25 15:03:49;;;;;;;74.28;30.98;;;;;;;;;;5070965;28;20056;-65
2022/01/25 15:06:16;;;;;;;87.43;34.88;;;;;;;;;;5072864;28;20147;-64
2022/01/25 15:08:53;;;;;;;75.18;31.20;;;;;;;;;;5072515;28;20206;-65
2022/01/25 15:11:20;;;;;;;75.22;32.10;;;;;;;;;;5071843;28;20040;-65
2022/01/25 15:13:47;;;;;;;77.70;31.60;;;;;;;;;;5073075;28;20128;-64
2022/01/25 15:16:13;;;;;;;76.13;30.75;;;;;;;;;;5071736;28;20507;-66
2022/01/25 15:18:40;;;;;;;78.15;30.52;;;;;;;;;;5071612;28;20119;-64
2022/01/25 15:21:07;;;;;;;81.65;32.17;;;;;;;;;;5072576;28;20055;-65
2022/01/25 15:23:35;;;;;;;74.78;30.08;;;;;;;;;;5072148;28;20038;-64
2022/01/25 15:26:06;;;;;;;70.30;30.95;;;;;;;;;;5071257;28;20061;-65
2022/01/25 15:28:38;;;;;;;80.15;33.85;;;;;;;;;;5071048;28;20051;-65
2022/01/25 15:31:05;;;;;;;76.97;30.60;;;;;;;;;;5070268;28;20538;-65
2022/01/25 15:33:32;;;;;;;78.40;31.38;;;;;;;;;;5071342;28;20036;-65
2022/01/25 15:35:58;;;;;;;76.55;30.17;;;;;;;;;;5071216;28;20614;-64
2022/01/25 15:38:24;;;;;;;73.38;31.40;;;;;;;;;;5072022;28;20068;-65
2022/01/25 15:40:50;;;;;;;77.13;31.25;;;;;;;;;;5071651;28;20482;-65
2022/01/25 15:43:22;;;;;;;75.97;30.73;;;;;;;;;;5070924;28;20036;-65
2022/01/25 15:46:03;;;;;;;80.10;34.92;;;;;;;;;;5069070;28;20162;-65
2022/01/25 15:48:30;;;;;;;84.82;33.58;;;;;;;;;;5070892;28;20049;-65
2022/01/25 15:50:56;;;;;;;77.40;30.60;;;;;;;;;;5065244;28;20037;-65
2022/01/25 15:53:23;;;;;;;82.32;31.88;;;;;;;;;;5072309;28;20041;-66
2022/01/25 15:55:49;;;;;;;81.40;32.55;;;;;;;;;;5071300;28;20067;-65
2022/01/25 15:58:15;;;;;;;73.03;30.27;;;;;;;;;;5070653;28;20701;-65
2022/01/25 16:00:47;;;;;;;78.30;32.15;;;;;;;;;;5069622;28;20044;-65
2022/01/25 16:03:15;;;;;;;77.65;31.60;;;;;;;;;;5070417;28;20402;-65
2022/01/25 16:05:41;;;;;;;74.13;30.95;;;;;;;;;;5072205;28;20049;-65
2022/01/25 16:08:07;;;;;;;76.75;30.80;;;;;;;;;;5072268;28;20036;-65
2022/01/25 16:10:35;;;;;;;73.50;29.17;;;;;;;;;;5071652;28;20047;-65
2022/01/25 16:13:01;;;;;;;74.07;29.75;;;;;;;;;;5072222;28;20463;-65
2022/01/25 16:15:27;;;;;;;68.95;29.10;;;;;;;;;;5070835;28;20543;-65
2022/01/25 16:17:53;;;;;;;75.93;29.85;;;;;;;;;;5071628;28;20118;-65
2022/01/25 16:20:19;;;;;;;80.15;31.02;;;;;;;;;;5071795;28;20036;-65
2022/01/25 16:22:45;;;;;;;70.45;29.80;;;;;;;;;;5072181;28;20499;-65
2022/01/25 16:25:11;;;;;;;74.85;30.05;;;;;;;;;;5070858;28;20668;-65
2022/01/25 16:27:37;;;;;;;76.38;29.15;;;;;;;;;;5072057;28;20045;-65
2022/01/25 16:30:04;;;;;;;78.10;29.48;;;;;;;;;;5071919;28;20147;-65
2022/01/25 16:32:35;;;;;;;76.25;31.52;;;;;;;;;;5071381;28;20041;-65
2022/01/25 16:35:03;;;;;;;79.20;30.70;;;;;;;;;;5071717;28;20044;-65
2022/01/25 16:37:29;;;;;;;81.93;31.70;;;;;;;;;;5071800;28;20045;-65
2022/01/25 16:39:55;;;;;;;76.25;30.27;;;;;;;;;;5071112;28;20439;-65